createdAt,value
2019-04-22T00:02:20.714Z,15.70
2019-04-22T00:05:01.118Z,15.70
2019-04-22T00:07:44.981Z,15.80
2019-04-22T00:10:21.168Z,15.80
2019-04-22T00:12:51.125Z,15.80
2019-04-22T00:15:10.009Z,15.70
2019-04-22T00:17:53.794Z,15.70
2019-04-22T00:20:15.460Z,15.50
2019-04-22T00:22:44.864Z,15.50
2019-04-22T00:32:59.347Z,15.60
2019-04-22T00:35:27.539Z,15.60
2019-04-22T00:38:08.946Z,15.50
2019-04-22T00:40:33.954Z,15.50
2019-04-22T00:43:03.468Z,15.60
2019-04-22T00:45:37.517Z,15.50
2019-04-22T00:48:09.098Z,15.40
2019-04-22T00:50:42.031Z,15.40
2019-04-22T00:53:08.607Z,15.30
2019-04-22T00:55:42.384Z,15.20
2019-04-22T00:58:12.269Z,15.10
2019-04-22T01:00:46.994Z,15.00
2019-04-22T01:03:22.853Z,14.80
2019-04-22T01:05:43.782Z,14.80
2019-04-22T01:08:17.761Z,14.70
2019-04-22T01:10:49.937Z,14.70
2019-04-22T01:13:16.694Z,14.70
2019-04-22T01:15:47.542Z,14.60
2019-04-22T01:18:11.488Z,14.50
2019-04-22T01:23:13.020Z,14.50
2019-04-22T01:25:41.713Z,14.50
2019-04-22T01:28:09.943Z,14.40
2019-04-22T01:30:32.784Z,14.40
2019-04-22T01:33:03.543Z,14.40
2019-04-22T01:35:37.775Z,14.40
2019-04-22T01:38:07.985Z,14.50
2019-04-22T01:40:58.636Z,14.40
2019-04-22T01:43:24.601Z,14.40
2019-04-22T01:45:56.181Z,14.30
2019-04-22T01:48:26.840Z,14.30
2019-04-22T01:50:50.163Z,14.30
2019-04-22T01:53:27.551Z,14.30
2019-04-22T01:55:52.045Z,14.30
2019-04-22T01:58:21.475Z,14.20
2019-04-22T02:01:01.543Z,14.20
2019-04-22T02:03:26.403Z,14.20
2019-04-22T02:05:58.795Z,14.30
2019-04-22T02:08:31.453Z,14.40
2019-04-22T02:11:01.038Z,14.40
2019-04-22T02:13:31.919Z,14.30
2019-04-22T02:16:03.587Z,14.40
2019-04-22T02:18:36.235Z,14.20
2019-04-22T02:20:59.757Z,14.20
2019-04-22T02:28:40.094Z,14.30
2019-04-22T02:34:01.767Z,14.30
2019-04-22T02:36:22.579Z,14.10
2019-04-22T02:38:59.871Z,14.10
2019-04-22T02:51:20.400Z,13.80
2019-04-22T02:56:27.624Z,13.70
2019-04-22T03:11:24.730Z,13.90
2019-04-22T03:18:59.071Z,14.00
2019-04-22T03:21:17.472Z,14.00
2019-04-22T03:26:27.216Z,14.00
2019-04-22T03:28:54.816Z,13.90
2019-04-22T03:41:47.773Z,14.00
2019-04-22T03:46:41.823Z,13.90
2019-04-22T03:52:02.988Z,14.00
2019-04-22T03:54:10.998Z,14.00
2019-04-22T03:57:10.440Z,14.00
2019-04-22T03:59:20.079Z,14.00
2019-04-22T04:01:56.142Z,14.00
2019-04-22T04:04:24.001Z,14.00
2019-04-22T04:06:54.608Z,13.90
2019-04-22T04:09:09.001Z,13.90
2019-04-22T04:11:57.998Z,13.90
2019-04-22T04:14:18.220Z,13.90
2019-04-22T04:16:47.758Z,14.00
2019-04-22T04:19:13.113Z,13.90
2019-04-22T04:24:42.310Z,14.00
2019-04-22T04:26:54.890Z,14.00
2019-04-22T04:29:25.478Z,13.90
2019-04-22T04:31:58.814Z,14.00
2019-04-22T04:34:32.611Z,14.00
2019-04-22T04:39:22.217Z,14.00
2019-04-22T04:46:49.759Z,13.80
2019-04-22T04:49:23.985Z,13.80
2019-04-22T04:51:47.016Z,13.80
2019-04-22T04:59:30.398Z,13.80
2019-04-22T05:01:55.560Z,13.80
2019-04-22T05:07:12.749Z,13.90
2019-04-22T05:14:19.111Z,14.00
2019-04-22T05:19:21.753Z,14.00
2019-04-22T05:21:53.059Z,14.10
2019-04-22T05:24:26.212Z,14.00
2019-04-22T05:26:48.486Z,14.10
2019-04-22T05:29:19.488Z,14.20
2019-04-22T05:31:52.408Z,14.30
2019-04-22T05:34:35.581Z,14.40
2019-04-22T05:39:17.154Z,14.50
2019-04-22T05:41:48.384Z,14.50
2019-04-22T05:46:47.910Z,14.80
2019-04-22T05:49:23.540Z,14.80
2019-04-22T05:51:53.184Z,15.00
2019-04-22T05:54:20.892Z,15.00
2019-04-22T05:56:44.256Z,15.10
2019-04-22T05:59:24.423Z,15.20
2019-04-22T06:02:01.352Z,15.30
2019-04-22T06:04:23.260Z,15.50
2019-04-22T06:06:57.220Z,15.70
2019-04-22T06:09:28.818Z,15.80
2019-04-22T06:11:54.484Z,16.10
2019-04-22T06:14:29.659Z,16.40
2019-04-22T06:17:03.943Z,16.70
2019-04-22T06:19:31.279Z,17.00
2019-04-22T06:22:09.634Z,17.20
2019-04-22T06:24:32.476Z,17.10
2019-04-22T06:27:14.745Z,17.20
2019-04-22T06:29:32.102Z,17.30
2019-04-22T06:32:23.029Z,17.70
2019-04-22T06:34:38.896Z,18.70
2019-04-22T06:39:40.102Z,19.90
2019-04-22T06:42:08.715Z,19.90
2019-04-22T06:44:40.553Z,19.70
2019-04-22T06:47:40.114Z,19.40
2019-04-22T06:52:13.946Z,18.80
2019-04-22T06:54:40.663Z,18.50
2019-04-22T06:57:25.444Z,18.20
2019-04-22T06:59:44.023Z,18.00
2019-04-22T07:02:16.579Z,17.90
2019-04-22T07:04:44.596Z,17.80
2019-04-22T07:07:12.716Z,17.80
2019-04-22T07:09:48.689Z,18.00
2019-04-22T07:12:17.303Z,18.20
2019-04-22T07:14:42.790Z,18.50
2019-04-22T07:17:15.004Z,18.50
2019-04-22T07:19:45.358Z,18.70
2019-04-22T07:22:18.148Z,19.00
2019-04-22T07:24:46.170Z,19.30
2019-04-22T07:27:18.785Z,19.60
2019-04-22T07:29:46.799Z,19.90
2019-04-22T07:32:25.328Z,20.20
2019-04-22T07:37:28.288Z,20.60
2019-04-22T07:39:46.116Z,20.90
2019-04-22T07:42:19.320Z,21.30
2019-04-22T07:44:51.198Z,21.20
2019-04-22T07:47:25.394Z,21.00
2019-04-22T07:49:55.711Z,20.90
2019-04-22T07:52:23.166Z,21.10
2019-04-22T07:54:53.068Z,20.90
2019-04-22T07:57:29.770Z,20.60
2019-04-22T07:59:57.802Z,20.40
2019-04-22T08:02:26.438Z,20.60
2019-04-22T08:05:05.517Z,20.50
2019-04-22T08:07:27.162Z,20.50
2019-04-22T08:10:00.077Z,20.40
2019-04-22T08:12:29.655Z,20.00
2019-04-22T08:14:54.721Z,19.60
2019-04-22T08:17:53.296Z,19.40
2019-04-22T08:22:25.960Z,19.10
2019-04-22T08:25:10.075Z,19.00
2019-04-22T08:27:31.986Z,18.90
2019-04-22T08:32:34.607Z,19.00
2019-04-22T08:34:55.725Z,18.90
2019-04-22T08:37:47.519Z,19.10
2019-04-22T08:40:09.536Z,19.20
2019-04-22T08:42:43.580Z,19.20
2019-04-22T08:45:09.633Z,19.30
2019-04-22T08:52:33.982Z,19.20
2019-04-22T08:57:57.327Z,19.20
2019-04-22T09:00:07.041Z,19.20
2019-04-22T09:02:43.181Z,19.30
2019-04-22T09:05:12.259Z,19.50
2019-04-22T09:07:37.004Z,19.30
2019-04-22T09:10:14.813Z,18.90
2019-04-22T09:12:51.957Z,18.60
2019-04-22T09:15:08.228Z,18.80
2019-04-22T09:17:40.216Z,19.00
2019-04-22T09:22:42.615Z,19.30
2019-04-22T09:25:11.720Z,19.50
2019-04-22T09:27:44.533Z,19.70
2019-04-22T09:30:15.698Z,19.70
2019-04-22T09:32:52.378Z,19.80
2019-04-22T09:35:09.673Z,19.80
2019-04-22T09:37:48.667Z,19.50
2019-04-22T09:40:20.279Z,19.60
2019-04-22T09:42:48.731Z,19.80
2019-04-22T09:45:11.242Z,20.10
2019-04-22T09:47:53.821Z,19.90
2019-04-22T09:50:22.283Z,19.80
2019-04-22T09:52:49.622Z,19.80
2019-04-22T09:55:19.742Z,19.90
2019-04-22T09:57:46.284Z,19.90
2019-04-22T10:00:15.516Z,20.10
2019-04-22T10:02:59.314Z,20.10
2019-04-22T10:05:20.884Z,20.30
2019-04-22T10:07:52.466Z,20.20
2019-04-22T10:10:35.236Z,20.00
2019-04-22T10:12:46.778Z,20.00
2019-04-22T10:15:19.634Z,20.00
2019-04-22T10:17:49.467Z,20.30
2019-04-22T10:20:20.598Z,20.50
2019-04-22T10:22:53.216Z,20.80
2019-04-22T10:25:27.914Z,20.70
2019-04-22T10:27:59.905Z,20.80
2019-04-22T10:30:33.962Z,21.10
2019-04-22T10:32:52.435Z,21.50
2019-04-22T10:35:12.973Z,21.40
2019-04-22T10:37:38.652Z,21.10
2019-04-22T10:40:13.402Z,21.30
2019-04-22T10:42:43.525Z,21.20
2019-04-22T10:45:14.467Z,21.30
2019-04-22T10:47:43.614Z,21.40
2019-04-22T10:50:14.280Z,21.50
2019-04-22T10:52:43.557Z,21.20
2019-04-22T10:55:13.814Z,20.80
2019-04-22T10:57:44.239Z,20.80
2019-04-22T11:00:13.822Z,21.00
2019-04-22T11:02:43.769Z,21.30
2019-04-22T11:05:14.340Z,21.70
2019-04-22T11:07:51.686Z,21.80
2019-04-22T11:10:27.350Z,21.30
2019-04-22T11:12:45.098Z,21.10
2019-04-22T11:15:15.916Z,21.30
2019-04-22T11:17:45.485Z,21.40
2019-04-22T11:20:15.564Z,21.20
2019-04-22T11:22:44.732Z,21.40
2019-04-22T11:25:13.899Z,21.30
2019-04-22T11:27:44.195Z,21.60
2019-04-22T11:30:18.252Z,21.70
2019-04-22T11:32:46.568Z,21.50
2019-04-22T11:35:16.258Z,21.30
2019-04-22T11:37:46.606Z,21.50
2019-04-22T11:40:24.364Z,21.50
2019-04-22T11:42:48.114Z,21.30
2019-04-22T11:45:17.530Z,21.90
2019-04-22T11:47:47.642Z,21.80
2019-04-22T11:50:17.714Z,22.00
2019-04-22T11:52:46.966Z,22.10
2019-04-22T11:55:17.031Z,22.30
2019-04-22T11:57:47.609Z,22.70
2019-04-22T12:00:20.829Z,22.90
2019-04-22T12:02:51.149Z,22.50
2019-04-22T12:05:21.741Z,22.50
2019-04-22T12:07:50.982Z,22.20
2019-04-22T12:10:30.933Z,22.00
2019-04-22T12:12:51.964Z,21.90
2019-04-22T12:15:22.664Z,21.70
2019-04-22T12:17:52.991Z,21.40
2019-04-22T12:20:23.434Z,21.50
2019-04-22T12:22:53.396Z,21.60
2019-04-22T12:25:34.673Z,21.50
2019-04-22T12:27:55.110Z,21.60
2019-04-22T12:30:25.597Z,21.80
2019-04-22T12:32:54.854Z,21.70
2019-04-22T12:35:24.351Z,21.90
2019-04-22T12:37:58.883Z,21.60
2019-04-22T12:40:33.829Z,21.80
2019-04-22T12:42:55.441Z,22.00
2019-04-22T12:45:24.858Z,22.40
2019-04-22T12:47:53.985Z,22.10
2019-04-22T12:50:29.270Z,21.70
2019-04-22T12:52:59.348Z,21.60
2019-04-22T12:55:25.998Z,21.60
2019-04-22T12:57:57.445Z,21.40
2019-04-22T13:00:27.769Z,21.20
2019-04-22T13:02:56.869Z,21.30
2019-04-22T13:05:26.923Z,21.20
2019-04-22T13:07:56.003Z,21.00
2019-04-22T13:10:26.083Z,21.10
2019-04-22T13:12:57.015Z,21.10
2019-04-22T13:15:26.849Z,21.20
2019-04-22T13:18:05.993Z,21.10
2019-04-22T13:20:26.259Z,21.20
2019-04-22T13:22:55.061Z,21.30
2019-04-22T13:25:27.962Z,21.20
2019-04-22T13:27:55.307Z,21.10
2019-04-22T13:30:24.459Z,20.90
2019-04-22T13:32:54.528Z,20.70
2019-04-22T13:35:24.622Z,20.60
2019-04-22T13:37:54.947Z,20.70
2019-04-22T13:40:25.199Z,20.70
2019-04-22T13:42:55.572Z,20.80
2019-04-22T13:45:25.555Z,20.90
2019-04-22T13:48:11.184Z,20.90
2019-04-22T13:50:56.627Z,20.80
2019-04-22T13:53:37.697Z,20.80
2019-04-22T13:55:54.775Z,21.00
2019-04-22T13:58:09.714Z,21.20
2019-04-22T14:00:31.049Z,20.90
2019-04-22T14:03:10.802Z,20.80
2019-04-22T14:05:42.538Z,20.80
2019-04-22T14:08:12.676Z,21.10
2019-04-22T14:10:42.825Z,21.40
2019-04-22T14:13:12.210Z,21.50
2019-04-22T14:15:43.573Z,21.60
2019-04-22T14:18:12.828Z,21.50
2019-04-22T14:20:42.815Z,21.10
2019-04-22T14:23:13.691Z,20.70
2019-04-22T14:25:43.012Z,20.80
2019-04-22T14:28:15.895Z,20.70
2019-04-22T14:30:42.638Z,20.70
2019-04-22T14:33:12.138Z,20.70
2019-04-22T14:35:41.616Z,20.50
2019-04-22T14:38:12.052Z,20.40
2019-04-22T14:40:42.950Z,20.50
2019-04-22T14:43:40.372Z,20.40
2019-04-22T14:48:41.614Z,20.20
2019-04-22T14:51:00.659Z,20.10
2019-04-22T14:53:37.750Z,20.10
2019-04-22T14:55:44.380Z,20.20
2019-04-22T14:58:15.066Z,20.30
2019-04-22T15:00:45.904Z,20.30
2019-04-22T15:03:15.570Z,20.40
2019-04-22T15:05:46.171Z,20.30
2019-04-22T15:08:15.341Z,20.30
2019-04-22T15:10:44.202Z,20.20
2019-04-22T15:13:13.475Z,20.00
2019-04-22T15:16:03.043Z,19.90
2019-04-22T15:18:35.757Z,19.90
2019-04-22T15:21:06.935Z,19.70
2019-04-22T15:23:36.025Z,19.70
2019-04-22T15:26:06.408Z,19.70
2019-04-22T15:28:35.567Z,19.70
2019-04-22T15:31:05.721Z,19.50
2019-04-22T15:33:35.253Z,19.40
2019-04-22T15:36:05.751Z,19.40
2019-04-22T15:38:36.327Z,19.30
2019-04-22T15:41:06.853Z,19.30
2019-04-22T15:43:37.155Z,19.10
2019-04-22T15:46:07.523Z,19.10
2019-04-22T15:48:37.767Z,19.20
2019-04-22T15:51:06.918Z,19.10
2019-04-22T15:53:35.901Z,19.10
2019-04-22T15:56:05.026Z,19.10
2019-04-22T15:58:35.224Z,19.00
2019-04-22T16:01:12.663Z,19.00
2019-04-22T16:03:36.834Z,19.00
2019-04-22T16:06:06.214Z,18.90
2019-04-22T16:08:37.701Z,18.90
2019-04-22T16:11:06.176Z,18.80
2019-04-22T16:13:37.991Z,18.70
2019-04-22T16:16:06.905Z,18.70
2019-04-22T16:18:36.200Z,18.70
2019-04-22T16:21:05.212Z,18.60
2019-04-22T16:23:36.507Z,18.50
2019-04-22T16:26:07.670Z,18.50
2019-04-22T16:28:37.638Z,18.60
2019-04-22T16:31:07.252Z,18.60
2019-04-22T16:33:39.686Z,18.50
2019-04-22T16:36:07.343Z,18.50
2019-04-22T16:38:37.690Z,18.40
2019-04-22T16:41:06.754Z,18.30
2019-04-22T16:43:36.460Z,18.20
2019-04-22T16:46:05.831Z,18.10
2019-04-22T16:48:35.820Z,18.10
2019-04-22T16:51:06.318Z,18.10
2019-04-22T16:53:36.954Z,18.00
2019-04-22T16:56:06.843Z,17.80
2019-04-22T16:58:36.833Z,17.70
2019-04-22T17:01:07.962Z,17.70
2019-04-22T17:03:54.452Z,17.60
2019-04-22T17:06:25.654Z,17.60
2019-04-22T17:08:55.175Z,17.60
2019-04-22T17:11:25.579Z,17.60
2019-04-22T17:13:55.204Z,17.50
2019-04-22T17:16:24.452Z,17.50
2019-04-22T17:18:54.215Z,17.50
2019-04-22T17:21:23.718Z,17.40
2019-04-22T17:23:53.848Z,17.30
2019-04-22T17:26:24.166Z,17.40
2019-04-22T17:28:55.511Z,17.30
2019-04-22T17:31:24.861Z,17.30
2019-04-22T17:33:54.924Z,17.30
2019-04-22T17:36:24.369Z,17.30
2019-04-22T17:39:07.068Z,17.30
2019-04-22T17:41:38.741Z,17.20
2019-04-22T17:44:18.879Z,17.20
2019-04-22T17:46:48.186Z,17.10
2019-04-22T17:49:31.928Z,17.10
2019-04-22T17:52:20.252Z,17.10
2019-04-22T17:54:49.293Z,17.10
2019-04-22T17:57:17.708Z,17.00
2019-04-22T17:59:46.680Z,17.00
2019-04-22T18:02:16.717Z,16.90
2019-04-22T18:04:38.711Z,17.00
2019-04-22T18:07:23.432Z,17.00
2019-04-22T18:12:33.489Z,16.90
2019-04-22T18:15:02.637Z,16.90
2019-04-22T18:17:27.280Z,16.80
2019-04-22T18:19:51.528Z,16.80
2019-04-22T18:22:19.832Z,16.80
2019-04-22T18:24:50.136Z,16.90
2019-04-22T18:27:38.931Z,16.90
2019-04-22T18:29:51.789Z,17.00
2019-04-22T18:32:18.113Z,17.00
2019-04-22T18:34:49.212Z,17.00
2019-04-22T18:37:23.683Z,17.00
2019-04-22T18:39:58.705Z,16.90
2019-04-22T18:42:23.913Z,16.90
2019-04-22T18:45:21.662Z,16.90
2019-04-22T18:47:26.258Z,16.90
2019-04-22T18:49:55.020Z,16.90
2019-04-22T18:52:49.288Z,16.90
2019-04-22T18:55:16.637Z,16.80
2019-04-22T18:58:00.842Z,16.80
2019-04-22T19:00:21.128Z,16.70
2019-04-22T19:02:56.811Z,16.70
2019-04-22T19:05:42.725Z,16.70
2019-04-22T19:08:18.461Z,16.70
2019-04-22T19:15:54.287Z,16.70
2019-04-22T19:18:25.640Z,16.70
2019-04-22T19:20:57.826Z,16.70
2019-04-22T19:23:25.680Z,16.70
2019-04-22T19:25:47.193Z,16.80
2019-04-22T19:28:29.425Z,16.70
2019-04-22T19:30:56.340Z,16.70
2019-04-22T19:33:23.877Z,16.70
2019-04-22T19:35:49.140Z,16.60
2019-04-22T19:38:15.494Z,16.70
2019-04-22T19:41:07.098Z,16.60
2019-04-22T19:43:30.819Z,16.60
2019-04-22T19:45:55.340Z,16.60
2019-04-22T19:48:34.638Z,16.60
2019-04-22T19:51:07.795Z,16.60
2019-04-22T19:53:29.718Z,16.60
2019-04-22T19:55:53.787Z,16.60
2019-04-22T19:58:31.571Z,16.60
2019-04-22T20:01:12.393Z,16.60
2019-04-22T20:03:57.872Z,16.60
2019-04-22T20:06:38.475Z,16.60
2019-04-22T20:09:18.201Z,16.60
2019-04-22T20:11:39.921Z,16.60
2019-04-22T20:14:12.736Z,16.60
2019-04-22T20:16:41.246Z,16.60
2019-04-22T20:19:12.370Z,16.60
2019-04-22T20:21:42.158Z,16.60
2019-04-22T20:24:01.502Z,16.60
2019-04-22T20:26:45.566Z,16.60
2019-04-22T20:29:11.785Z,16.60
2019-04-22T20:31:46.951Z,16.60
2019-04-22T20:34:14.724Z,16.60
2019-04-22T20:36:56.949Z,16.60
2019-04-22T20:39:11.843Z,16.60
2019-04-22T20:41:36.781Z,16.60
2019-04-22T20:44:15.984Z,16.60
2019-04-22T20:46:44.886Z,16.60
2019-04-22T20:49:21.764Z,16.60
2019-04-22T20:51:55.820Z,16.70
2019-04-22T20:54:19.320Z,16.80
2019-04-22T20:56:48.200Z,16.80
2019-04-22T20:59:19.451Z,16.80
2019-04-22T21:01:48.996Z,16.70
2019-04-22T21:04:05.208Z,16.70
2019-04-22T21:06:48.886Z,16.70
2019-04-22T21:09:23.972Z,16.70
2019-04-22T21:11:48.393Z,16.70
2019-04-22T21:14:17.796Z,16.60
2019-04-22T21:16:51.711Z,16.50
2019-04-22T21:19:31.383Z,16.50
2019-04-22T21:21:59.567Z,16.40
2019-04-22T21:24:23.735Z,16.30
2019-04-22T21:26:47.178Z,16.20
2019-04-22T21:29:20.754Z,16.20
2019-04-22T21:31:54.617Z,16.10
2019-04-22T21:34:23.348Z,16.10
2019-04-22T21:37:04.291Z,16.10
2019-04-22T21:39:27.392Z,16.00
2019-04-22T21:42:00.181Z,16.00
2019-04-22T21:44:32.363Z,16.00
2019-04-22T21:47:12.686Z,16.00
2019-04-22T21:49:35.906Z,16.00
2019-04-22T21:52:01.660Z,16.00
2019-04-22T21:54:32.253Z,16.10
2019-04-22T21:57:13.645Z,16.10
2019-04-22T21:59:34.291Z,16.10
2019-04-22T22:02:11.025Z,16.10
2019-04-22T22:04:33.731Z,16.10
2019-04-22T22:06:57.129Z,16.00
2019-04-22T22:09:39.934Z,16.00
2019-04-22T22:12:05.136Z,15.90
2019-04-22T22:14:40.105Z,15.90
2019-04-22T22:17:02.015Z,15.80
2019-04-22T22:19:39.380Z,15.80
2019-04-22T22:22:30.169Z,15.70
2019-04-22T22:24:45.200Z,15.70
2019-04-22T22:27:14.641Z,15.70
2019-04-22T22:30:06.847Z,15.70
2019-04-22T22:32:22.003Z,15.70
2019-04-22T22:34:45.897Z,15.60
2019-04-22T22:37:06.457Z,15.60
2019-04-22T22:39:36.467Z,15.40
2019-04-22T22:41:54.514Z,15.50
2019-04-22T22:44:30.253Z,15.40
2019-04-22T22:47:08.619Z,15.40
2019-04-22T22:49:48.282Z,15.40
2019-04-22T22:52:36.705Z,15.40
2019-04-22T22:54:46.368Z,15.50
2019-04-22T22:57:21.373Z,15.50
2019-04-22T22:59:45.561Z,15.50
2019-04-22T23:02:15.689Z,15.50
2019-04-22T23:04:52.216Z,15.50
2019-04-22T23:07:22.666Z,15.50
2019-04-22T23:09:48.757Z,15.50
2019-04-22T23:12:31.277Z,15.50
2019-04-22T23:14:49.543Z,15.50
2019-04-22T23:17:07.081Z,15.50
2019-04-22T23:19:33.588Z,15.40
2019-04-22T23:22:06.339Z,15.40
2019-04-22T23:24:54.463Z,15.50
2019-04-22T23:27:28.878Z,15.40
2019-04-22T23:29:57.234Z,15.30
2019-04-22T23:32:29.697Z,15.20
2019-04-22T23:35:10.427Z,15.20
2019-04-22T23:37:35.671Z,15.10
2019-04-22T23:40:18.839Z,15.00
2019-04-22T23:42:48.288Z,15.00
2019-04-22T23:45:14.002Z,14.90
2019-04-22T23:47:35.371Z,14.80
2019-04-22T23:50:14.531Z,14.80
2019-04-22T23:52:49.515Z,14.80
2019-04-22T23:55:22.942Z,14.90
2019-04-22T23:57:55.556Z,14.90
